Time;durP1;ratioP1;P1;durP2;ratioP2;P2;SDS_P1;SDS_P2;PMS_P1;PMS_P2;Temp;Humidity;BMP_temperature;BMP_pressure;BME280_temperature;BME280_humidity;BME280_pressure;Samples;Min_cycle;Max_cycle;Signal;HPM_P1;HPM_P2
2021/06/27 00:01:29;;;;;;;12.95;7.85;;;17.90;60.70;;;;;;4899370;29;20028;-87
2021/06/27 00:03:55;;;;;;;12.63;8.60;;;17.80;60.80;;;;;;4918571;29;20481;-87
2021/06/27 00:06:22;;;;;;;14.32;8.52;;;17.80;61.00;;;;;;4902289;29;20128;-87
2021/06/27 00:08:48;;;;;;;14.02;8.63;;;17.80;61.10;;;;;;4915983;29;20039;-87
2021/06/27 00:11:15;;;;;;;14.18;8.23;;;17.70;61.10;;;;;;4915898;29;20024;-87
2021/06/27 00:13:43;;;;;;;13.68;8.60;;;17.70;61.40;;;;;;4899393;29;20028;-87
2021/06/27 00:16:09;;;;;;;13.77;8.77;;;17.60;61.40;;;;;;4915919;29;20028;-87
2021/06/27 00:18:36;;;;;;;18.20;9.15;;;17.60;61.50;;;;;;4915310;29;20031;-87
2021/06/27 00:21:06;;;;;;;14.68;9.35;;;17.60;61.60;;;;;;4915795;29;20051;-86
2021/06/27 00:23:35;;;;;;;15.80;9.57;;;17.50;61.70;;;;;;4898993;29;20020;-86
2021/06/27 00:26:05;;;;;;;13.77;9.18;;;17.50;61.70;;;;;;4895957;29;20060;-86
2021/06/27 00:28:31;;;;;;;14.70;9.32;;;17.40;61.90;;;;;;4915732;29;20059;-87
2021/06/27 00:30:57;;;;;;;14.65;9.40;;;17.40;61.80;;;;;;4916076;29;20438;-87
2021/06/27 00:33:23;;;;;;;15.85;9.32;;;17.40;61.90;;;;;;4915895;29;20025;-87
2021/06/27 00:35:50;;;;;;;13.82;8.30;;;17.30;62.00;;;;;;4915909;29;20493;-87
2021/06/27 00:38:16;;;;;;;15.63;9.45;;;17.30;62.10;;;;;;4915999;29;20029;-86
2021/06/27 00:40:42;;;;;;;14.63;9.50;;;17.30;62.20;;;;;;4899368;29;20380;-87
2021/06/27 00:43:09;;;;;;;14.15;9.52;;;17.20;62.40;;;;;;4916135;29;20017;-86
2021/06/27 00:45:35;;;;;;;14.30;9.48;;;17.20;62.60;;;;;;4916075;29;20515;-87
2021/06/27 00:48:02;;;;;;;13.73;9.25;;;17.20;62.60;;;;;;4919276;29;20060;-87
2021/06/27 00:50:32;;;;;;;15.15;9.85;;;17.10;62.60;;;;;;4922408;29;20032;-87
2021/06/27 00:52:58;;;;;;;15.95;10.15;;;17.10;62.80;;;;;;4902768;29;20046;-86
2021/06/27 00:55:24;;;;;;;15.15;9.90;;;17.10;62.90;;;;;;4919597;29;20035;-87
2021/06/27 00:57:52;;;;;;;17.10;9.57;;;17.10;62.90;;;;;;4898837;29;20037;-87
2021/06/27 01:00:29;;;;;;;16.00;10.23;;;17.00;62.90;;;;;;4919282;29;20032;-87
2021/06/27 01:02:56;;;;;;;17.20;10.55;;;17.00;63.00;;;;;;4902530;29;20388;-86
2021/06/27 01:05:24;;;;;;;16.85;10.48;;;17.00;63.10;;;;;;4919371;29;20024;-86
2021/06/27 01:07:51;;;;;;;17.13;10.50;;;16.90;63.20;;;;;;4919210;29;20027;-86
2021/06/27 01:10:17;;;;;;;18.20;9.93;;;16.90;63.30;;;;;;4902698;29;20994;-86
2021/06/27 01:12:43;;;;;;;16.40;10.63;;;16.80;63.40;;;;;;4919369;29;20385;-87
2021/06/27 01:15:10;;;;;;;18.40;10.65;;;16.80;63.50;;;;;;4918564;29;20036;-86
2021/06/27 01:17:42;;;;;;;17.20;11.32;;;16.70;63.30;;;;;;4918984;29;20043;-86
2021/06/27 01:20:28;;;;;;;22.88;11.13;;;16.70;63.60;;;;;;4919198;29;20020;-85
2021/06/27 01:22:56;;;;;;;19.17;10.88;;;16.70;63.80;;;;;;4902299;29;20475;-86
2021/06/27 01:25:27;;;;;;;20.77;10.57;;;16.70;63.70;;;;;;4903439;29;20043;-85
2021/06/27 01:27:54;;;;;;;18.20;10.30;;;16.60;64.00;;;;;;4919291;29;20016;-86
2021/06/27 01:30:21;;;;;;;16.85;11.15;;;16.60;64.00;;;;;;4918862;29;20111;-86
2021/06/27 01:32:49;;;;;;;21.33;11.18;;;16.50;63.90;;;;;;4918817;29;20028;-86
2021/06/27 01:35:17;;;;;;;21.00;12.02;;;16.50;64.00;;;;;;4918518;29;20372;-86
2021/06/27 01:37:45;;;;;;;23.08;11.75;;;16.50;64.10;;;;;;4918632;29;20024;-86
2021/06/27 01:40:13;;;;;;;20.60;11.45;;;16.40;64.10;;;;;;4903239;29;20038;-86
2021/06/27 01:42:39;;;;;;;21.50;11.85;;;16.40;64.20;;;;;;4918513;29;20025;-86
2021/06/27 01:45:25;;;;;;;25.33;12.27;;;16.40;64.20;;;;;;4918648;29;20047;-86
2021/06/27 01:47:56;;;;;;;18.85;11.05;;;16.30;64.40;;;;;;4914547;29;20024;-86
2021/06/27 01:50:23;;;;;;;20.13;11.18;;;16.30;64.40;;;;;;4918385;29;20033;-86
2021/06/27 01:52:49;;;;;;;21.23;12.55;;;16.30;64.40;;;;;;4918129;29;20378;-86
2021/06/27 01:55:15;;;;;;;19.70;12.23;;;16.20;64.50;;;;;;4918333;29;20063;-86
2021/06/27 01:57:41;;;;;;;18.70;10.98;;;16.20;64.60;;;;;;4918150;29;20036;-86
2021/06/27 02:00:07;;;;;;;19.23;11.27;;;16.20;64.60;;;;;;4901621;29;20024;-86
2021/06/27 02:02:33;;;;;;;20.35;11.75;;;16.20;64.70;;;;;;4917503;29;20027;-88
2021/06/27 02:04:59;;;;;;;19.20;10.88;;;16.20;65.00;;;;;;4902413;29;20036;-88
2021/06/27 02:07:25;;;;;;;19.23;11.57;;;16.10;64.90;;;;;;4902590;29;20024;-87
2021/06/27 02:09:51;;;;;;;19.65;11.07;;;16.10;65.00;;;;;;4918042;29;20044;-86
2021/06/27 02:12:16;;;;;;;18.95;10.63;;;16.00;64.90;;;;;;4918670;29;20111;-86
2021/06/27 02:14:42;;;;;;;20.73;10.95;;;16.10;65.10;;;;;;4902047;29;20039;-86
2021/06/27 02:17:09;;;;;;;20.98;11.70;;;16.10;65.20;;;;;;4901411;29;20024;-86
2021/06/27 02:19:35;;;;;;;18.52;11.05;;;16.10;65.30;;;;;;4917822;29;20391;-87
2021/06/27 02:22:01;;;;;;;19.65;11.23;;;16.00;65.20;;;;;;4918164;29;20033;-86
2021/06/27 02:24:27;;;;;;;22.95;11.93;;;16.00;65.20;;;;;;4917842;29;20115;-87
2021/06/27 02:26:53;;;;;;;17.60;10.40;;;16.00;65.30;;;;;;4900936;29;20076;-86
2021/06/27 02:29:18;;;;;;;18.17;10.70;;;15.90;65.30;;;;;;4887343;29;20046;-86
2021/06/27 02:31:49;;;;;;;19.52;10.77;;;15.90;65.40;;;;;;4917681;29;20036;-86
2021/06/27 02:34:16;;;;;;;20.95;10.90;;;15.90;65.40;;;;;;4917951;29;20017;-85
2021/06/27 02:36:42;;;;;;;21.13;11.68;;;15.90;65.70;;;;;;4903877;29;20024;-87
2021/06/27 02:39:08;;;;;;;21.40;11.00;;;15.80;65.60;;;;;;4917768;29;20536;-87
2021/06/27 02:41:35;;;;;;;20.15;10.60;;;15.80;65.70;;;;;;4900775;29;20111;-86
2021/06/27 02:44:01;;;;;;;19.60;11.30;;;15.80;65.80;;;;;;4917555;29;20076;-86
2021/06/27 02:46:27;;;;;;;18.73;10.52;;;15.80;65.80;;;;;;4917457;29;20513;-86
2021/06/27 02:48:53;;;;;;;20.58;11.02;;;15.80;66.40;;;;;;4901383;29;20071;-86
2021/06/27 02:51:20;;;;;;;19.40;11.02;;;15.80;65.90;;;;;;4917527;29;20358;-86
2021/06/27 02:53:45;;;;;;;19.98;11.13;;;15.70;65.90;;;;;;4900396;29;20032;-87
2021/06/27 02:56:11;;;;;;;18.33;11.05;;;15.60;65.90;;;;;;4901832;29;20038;-87
2021/06/27 02:58:46;;;;;;;21.70;11.88;;;15.70;66.10;;;;;;4917154;29;20060;-87
2021/06/27 03:01:12;;;;;;;21.05;11.70;;;15.60;66.30;;;;;;4917111;29;20032;-87
2021/06/27 03:03:39;;;;;;;19.13;10.80;;;15.60;66.20;;;;;;4920273;29;20043;-87
2021/06/27 03:06:05;;;;;;;19.02;10.18;;;15.60;66.10;;;;;;4919873;29;20115;-87
2021/06/27 03:08:31;;;;;;;18.23;10.43;;;15.50;66.20;;;;;;4917452;29;20048;-87
2021/06/27 03:10:58;;;;;;;21.38;11.15;;;15.60;66.40;;;;;;4900501;29;20051;-87
2021/06/27 03:13:23;;;;;;;21.90;11.75;;;15.50;66.50;;;;;;4900397;29;20054;-87
2021/06/27 03:15:50;;;;;;;20.25;11.73;;;15.60;66.60;;;;;;4899699;29;20059;-87
2021/06/27 03:18:15;;;;;;;23.70;11.38;;;15.50;66.60;;;;;;4886222;29;20495;-87
2021/06/27 03:20:41;;;;;;;21.73;12.10;;;15.50;66.60;;;;;;4901790;29;20107;-87
2021/06/27 03:23:11;;;;;;;20.95;11.32;;;15.50;66.80;;;;;;4899856;29;20025;-87
2021/06/27 03:25:37;;;;;;;20.38;11.13;;;15.50;66.90;;;;;;4900276;29;20028;-87
2021/06/27 03:28:04;;;;;;;26.33;12.30;;;15.50;66.90;;;;;;4917314;29;20036;-87
2021/06/27 03:30:29;;;;;;;24.30;12.80;;;15.50;66.90;;;;;;4922819;29;20036;-87
2021/06/27 03:32:55;;;;;;;23.77;11.90;;;15.50;66.90;;;;;;4920543;29;20492;-86
2021/06/27 03:35:21;;;;;;;24.80;12.30;;;15.50;67.00;;;;;;4916702;29;20036;-87
2021/06/27 03:38:15;;;;;;;20.13;10.95;;;15.40;66.90;;;;;;4900490;29;20033;-86
2021/06/27 03:40:33;;;;;;;23.58;11.27;;;15.40;67.00;;;;;;4914635;29;20440;-87
2021/06/27 03:43:01;;;;;;;26.90;13.13;;;15.50;67.10;;;;;;4900371;29;20036;-86
2021/06/27 03:45:30;;;;;;;22.30;12.15;;;15.40;67.20;;;;;;4901323;29;20024;-86
2021/06/27 03:47:56;;;;;;;22.30;11.98;;;15.50;67.40;;;;;;4929781;29;20033;-86
2021/06/27 03:50:23;;;;;;;20.73;11.32;;;15.40;67.50;;;;;;4900025;29;20052;-86
2021/06/27 03:52:49;;;;;;;23.80;12.52;;;15.50;67.60;;;;;;4900801;29;20505;-86
2021/06/27 03:55:17;;;;;;;22.05;12.68;;;15.50;67.70;;;;;;4916231;29;20092;-86
2021/06/27 03:57:42;;;;;;;23.45;11.77;;;15.50;67.70;;;;;;4901014;29;20025;-87
2021/06/27 04:00:09;;;;;;;23.52;11.60;;;15.60;67.80;;;;;;4900285;29;20054;-86
2021/06/27 04:02:35;;;;;;;22.23;12.07;;;15.60;67.90;;;;;;4916420;29;20480;-86
2021/06/27 04:05:03;;;;;;;21.23;12.20;;;15.60;67.80;;;;;;4919323;29;20056;-86
2021/06/27 04:07:29;;;;;;;25.15;13.75;;;15.60;67.90;;;;;;4916337;29;20017;-86
2021/06/27 04:09:54;;;;;;;24.33;12.85;;;15.70;68.00;;;;;;4900521;29;20044;-87
2021/06/27 04:12:20;;;;;;;24.38;12.60;;;15.70;68.10;;;;;;4899651;29;20465;-87
2021/06/27 04:14:45;;;;;;;26.75;14.45;;;15.70;68.20;;;;;;4900491;29;20044;-86
2021/06/27 04:17:13;;;;;;;22.60;12.32;;;15.70;68.30;;;;;;4916026;29;20017;-86
2021/06/27 04:19:38;;;;;;;25.38;13.20;;;15.80;68.40;;;;;;4899403;29;20023;-86
2021/06/27 04:22:04;;;;;;;25.52;12.88;;;15.80;68.40;;;;;;4916382;29;20028;-87
2021/06/27 04:24:30;;;;;;;25.95;13.57;;;15.90;68.50;;;;;;4915724;29;20020;-86
2021/06/27 04:26:55;;;;;;;24.13;13.55;;;15.90;68.60;;;;;;4918777;29;20028;-87
2021/06/27 04:29:21;;;;;;;26.17;13.27;;;15.90;68.60;;;;;;4919775;29;20047;-86
2021/06/27 04:31:46;;;;;;;24.90;13.38;;;16.00;68.70;;;;;;4904350;29;20129;-86
2021/06/27 04:34:13;;;;;;;26.58;13.70;;;16.10;68.80;;;;;;4919608;29;20381;-88
2021/06/27 04:36:39;;;;;;;29.48;14.20;;;16.10;68.90;;;;;;4919926;29;20023;-89
2021/06/27 04:39:06;;;;;;;27.77;13.80;;;16.20;69.00;;;;;;4919197;29;20111;-87
2021/06/27 04:41:34;;;;;;;24.77;13.30;;;16.20;69.10;;;;;;4920039;29;20020;-86
2021/06/27 04:43:59;;;;;;;24.08;13.70;;;16.30;69.20;;;;;;4902248;29;20028;-86
2021/06/27 04:46:25;;;;;;;22.20;13.13;;;16.30;69.20;;;;;;4919703;29;20031;-87
2021/06/27 04:48:51;;;;;;;21.88;13.18;;;16.50;69.50;;;;;;4902619;29;20024;-87
2021/06/27 04:51:16;;;;;;;21.08;13.30;;;16.60;69.50;;;;;;4919515;29;20074;-87
2021/06/27 04:53:42;;;;;;;22.42;14.10;;;16.70;69.70;;;;;;4920003;29;20036;-87
2021/06/27 04:56:08;;;;;;;22.33;14.95;;;16.90;70.00;;;;;;4902546;29;20469;-87
2021/06/27 04:58:33;;;;;;;20.70;12.02;;;17.00;70.10;;;;;;4919947;29;20032;-87
2021/06/27 05:00:59;;;;;;;21.08;13.73;;;17.00;70.20;;;;;;4919064;29;20031;-87
2021/06/27 05:03:24;;;;;;;21.90;13.02;;;17.30;70.30;;;;;;4919381;29;20483;-88
2021/06/27 05:05:50;;;;;;;21.33;13.18;;;17.40;70.30;;;;;;4919588;29;20107;-89
2021/06/27 05:08:16;;;;;;;20.67;12.35;;;17.50;70.30;;;;;;4921766;29;20055;-87
2021/06/27 05:10:42;;;;;;;18.40;12.63;;;17.70;70.40;;;;;;4928647;29;20047;-87
2021/06/27 05:13:08;;;;;;;19.65;13.30;;;17.80;70.30;;;;;;4902685;29;20016;-87
2021/06/27 05:15:33;;;;;;;17.40;11.60;;;17.90;70.50;;;;;;4919848;29;20469;-87
2021/06/27 05:17:59;;;;;;;16.08;11.65;;;18.10;70.60;;;;;;4902974;29;20031;-88
2021/06/27 05:20:24;;;;;;;19.75;13.10;;;18.10;70.40;;;;;;4903054;29;20040;-87
2021/06/27 05:22:50;;;;;;;15.88;10.80;;;18.30;71.10;;;;;;4902867;29;20127;-88
2021/06/27 05:25:16;;;;;;;15.27;10.02;;;18.40;70.40;;;;;;4919154;29;20020;-85
2021/06/27 05:27:42;;;;;;;15.13;10.05;;;18.50;70.30;;;;;;4919245;29;20111;-86
2021/06/27 05:30:08;;;;;;;14.98;9.57;;;18.60;70.40;;;;;;4919117;29;20040;-83
2021/06/27 05:32:33;;;;;;;14.40;9.65;;;18.70;70.60;;;;;;4919326;29;20028;-84
2021/06/27 05:34:59;;;;;;;13.77;9.38;;;18.80;70.70;;;;;;4918833;29;20020;-86
2021/06/27 05:37:25;;;;;;;13.85;8.63;;;19.00;70.80;;;;;;4918629;29;20103;-92
2021/06/27 05:39:50;;;;;;;11.90;7.95;;;19.10;70.80;;;;;;4934784;29;20115;-91
2021/06/27 05:42:18;;;;;;;13.15;8.57;;;19.20;70.70;;;;;;4903129;29;20028;-91
2021/06/27 05:44:44;;;;;;;11.60;7.85;;;19.30;70.70;;;;;;4902282;29;20024;-86
2021/06/27 05:47:10;;;;;;;12.05;7.15;;;19.40;70.60;;;;;;4918465;29;20495;-86
2021/06/27 05:49:35;;;;;;;11.85;7.57;;;19.60;70.50;;;;;;4901940;29;20458;-86
2021/06/27 05:52:01;;;;;;;12.63;7.78;;;19.60;70.30;;;;;;4918578;29;20139;-84
2021/06/27 05:54:26;;;;;;;12.43;8.02;;;19.70;70.30;;;;;;4918518;29;20032;-85
2021/06/27 05:56:52;;;;;;;12.10;7.82;;;19.80;70.30;;;;;;4918657;29;20114;-84
2021/06/27 05:59:18;;;;;;;12.15;7.38;;;19.90;70.40;;;;;;4918277;29;20107;-83
2021/06/27 06:01:43;;;;;;;11.02;7.25;;;20.10;70.60;;;;;;4918379;29;20028;-83
2021/06/27 06:04:09;;;;;;;11.45;7.32;;;20.10;70.40;;;;;;4906369;29;20028;-83
2021/06/27 06:06:34;;;;;;;12.07;7.15;;;20.20;70.40;;;;;;4921920;29;20083;-83
2021/06/27 06:09:00;;;;;;;11.77;7.13;;;20.30;70.20;;;;;;4918786;29;20032;-83
2021/06/27 06:11:27;;;;;;;11.40;7.15;;;20.30;70.00;;;;;;4924917;29;20040;-83
2021/06/27 06:13:53;;;;;;;12.95;7.20;;;20.40;69.80;;;;;;4911344;29;20043;-83
2021/06/27 06:16:19;;;;;;;10.30;7.10;;;20.40;69.60;;;;;;4918452;29;20036;-83
2021/06/27 06:18:46;;;;;;;12.07;7.22;;;20.40;69.20;;;;;;4902772;29;20039;-83
2021/06/27 06:21:13;;;;;;;11.07;7.30;;;20.30;69.00;;;;;;4903419;29;20036;-83
2021/06/27 06:23:39;;;;;;;10.55;6.72;;;20.20;68.90;;;;;;4920681;29;20381;-84
2021/06/27 06:26:05;;;;;;;11.13;7.57;;;20.10;68.80;;;;;;4899401;29;20499;-83
2021/06/27 06:28:31;;;;;;;13.63;7.68;;;20.10;69.30;;;;;;4917976;29;20095;-83
2021/06/27 06:30:57;;;;;;;11.50;7.22;;;20.10;69.50;;;;;;4918255;29;20096;-83
2021/06/27 06:33:22;;;;;;;11.25;7.20;;;20.20;69.50;;;;;;4917104;29;20031;-83
2021/06/27 06:35:48;;;;;;;12.38;7.40;;;20.20;69.40;;;;;;4920568;29;20108;-83
2021/06/27 06:38:14;;;;;;;11.73;7.85;;;20.30;69.70;;;;;;4935473;29;20285;-83
2021/06/27 06:40:40;;;;;;;12.02;7.53;;;20.30;69.90;;;;;;4912645;29;20059;-85
2021/06/27 06:43:06;;;;;;;11.38;7.00;;;20.50;70.00;;;;;;4932495;29;20032;-83
2021/06/27 06:45:33;;;;;;;10.05;6.40;;;20.60;70.20;;;;;;4932611;29;20032;-83
2021/06/27 06:47:59;;;;;;;11.77;6.70;;;20.80;70.20;;;;;;4917395;29;20472;-84
2021/06/27 06:50:26;;;;;;;10.57;6.38;;;20.90;70.10;;;;;;4917057;29;20051;-84
2021/06/27 06:52:52;;;;;;;10.60;6.78;;;21.00;69.90;;;;;;4917577;29;20044;-85
2021/06/27 06:55:20;;;;;;;10.27;6.30;;;21.10;69.90;;;;;;4900697;29;20529;-85
2021/06/27 06:57:47;;;;;;;10.48;6.40;;;21.20;69.80;;;;;;4901290;29;20096;-84
2021/06/27 07:00:13;;;;;;;10.10;6.70;;;21.30;69.60;;;;;;4917559;29;20119;-83
2021/06/27 07:02:39;;;;;;;10.80;7.10;;;21.20;69.20;;;;;;4917681;29;20028;-84
2021/06/27 07:05:06;;;;;;;9.50;6.10;;;21.20;69.10;;;;;;4919184;29;20080;-84
2021/06/27 07:07:32;;;;;;;14.55;10.05;;;21.20;68.90;;;;;;4886425;29;20028;-84
2021/06/27 07:09:58;;;;;;;10.00;6.30;;;21.20;69.20;;;;;;4881455;29;20048;-84
2021/06/27 07:12:24;;;;;;;11.18;6.45;;;21.20;69.40;;;;;;4902864;29;20151;-84
2021/06/27 07:14:49;;;;;;;9.80;6.30;;;21.30;69.60;;;;;;4915911;29;20080;-85
2021/06/27 07:17:15;;;;;;;13.20;6.60;;;21.40;69.60;;;;;;4917216;29;20035;-85
2021/06/27 07:19:40;;;;;;;10.45;6.07;;;21.40;69.60;;;;;;4906109;29;20036;-85
2021/06/27 07:22:06;;;;;;;11.00;6.68;;;21.60;69.70;;;;;;4916780;29;20028;-85
2021/06/27 07:24:32;;;;;;;10.15;5.70;;;21.70;69.70;;;;;;4916826;29;20067;-85
2021/06/27 07:26:57;;;;;;;10.00;5.57;;;21.70;69.60;;;;;;4916971;29;20024;-85
2021/06/27 07:29:23;;;;;;;10.02;5.75;;;21.80;69.60;;;;;;4918529;29;20052;-85
2021/06/27 07:31:49;;;;;;;9.35;5.25;;;21.90;69.50;;;;;;4916621;29;20031;-85
2021/06/27 07:34:14;;;;;;;9.80;6.22;;;22.00;69.50;;;;;;4917355;29;20065;-85
2021/06/27 07:36:41;;;;;;;10.35;5.63;;;22.00;69.40;;;;;;4885979;29;20118;-85
2021/06/27 07:39:07;;;;;;;10.60;6.30;;;22.10;69.20;;;;;;4917820;29;20020;-85
2021/06/27 07:41:33;;;;;;;9.82;5.90;;;22.00;69.20;;;;;;4900010;29;20020;-85
2021/06/27 07:43:59;;;;;;;9.77;6.18;;;22.10;69.20;;;;;;4916287;29;20122;-85
2021/06/27 07:46:25;;;;;;;10.50;5.60;;;22.20;69.40;;;;;;4919772;29;20520;-85
2021/06/27 07:48:50;;;;;;;9.18;5.90;;;22.20;69.30;;;;;;4916183;29;20024;-85
2021/06/27 07:51:16;;;;;;;10.38;6.47;;;22.30;69.60;;;;;;4916493;29;20079;-84
2021/06/27 07:53:42;;;;;;;9.30;5.60;;;22.50;69.70;;;;;;4915486;29;20537;-84
2021/06/27 07:56:08;;;;;;;11.48;5.90;;;22.60;69.70;;;;;;4919297;29;20504;-85
2021/06/27 07:58:34;;;;;;;10.27;5.88;;;22.80;69.90;;;;;;4916147;29;20111;-85
2021/06/27 08:01:01;;;;;;;10.70;5.72;;;22.90;70.00;;;;;;4915407;29;20079;-93
2021/06/27 08:03:27;;;;;;;9.27;5.70;;;23.20;70.40;;;;;;4900807;29;20040;-87
2021/06/27 08:05:52;;;;;;;10.18;5.65;;;23.50;70.40;;;;;;4898684;29;20111;-93
2021/06/27 08:08:18;;;;;;;8.73;5.07;;;23.70;70.30;;;;;;4931254;29;20160;-83
2021/06/27 08:10:44;;;;;;;10.38;5.53;;;24.10;70.40;;;;;;4916207;29;20257;-83
2021/06/27 08:13:10;;;;;;;10.27;5.55;;;24.40;70.50;;;;;;4916568;29;20024;-83
2021/06/27 08:15:37;;;;;;;9.60;5.53;;;24.70;70.10;;;;;;4919779;29;20036;-83
2021/06/27 08:18:02;;;;;;;8.63;5.25;;;24.90;69.40;;;;;;4915813;29;20469;-82
2021/06/27 08:20:29;;;;;;;8.82;4.85;;;25.00;69.00;;;;;;4918607;29;20028;-81
2021/06/27 08:22:55;;;;;;;8.32;4.82;;;25.10;68.70;;;;;;4918877;29;20031;-82
2021/06/27 08:25:21;;;;;;;8.25;4.90;;;25.10;68.00;;;;;;4884549;29;20111;-81
2021/06/27 08:27:48;;;;;;;8.68;4.55;;;25.10;68.00;;;;;;4916460;29;20024;-81
2021/06/27 08:30:15;;;;;;;9.07;4.70;;;25.10;67.40;;;;;;4885229;29;20047;-84
2021/06/27 08:32:45;;;;;;;8.23;4.65;;;25.00;67.30;;;;;;4916026;29;20161;-82
2021/06/27 08:35:16;;;;;;;8.48;4.72;;;25.00;67.30;;;;;;4904019;29;20028;-82
2021/06/27 08:37:43;;;;;;;8.65;5.35;;;25.00;67.10;;;;;;4899330;29;20039;-83
2021/06/27 08:40:10;;;;;;;8.05;4.60;;;25.00;67.20;;;;;;4916424;29;20492;-81
2021/06/27 08:42:37;;;;;;;8.77;5.28;;;25.00;67.20;;;;;;4915466;29;20032;-81
2021/06/27 08:45:05;;;;;;;10.07;5.20;;;25.00;67.50;;;;;;4915847;29;20072;-82
2021/06/27 08:47:34;;;;;;;7.93;4.38;;;25.00;67.70;;;;;;4913454;29;20048;-82
2021/06/27 08:50:01;;;;;;;9.18;4.93;;;25.10;67.60;;;;;;4918354;29;20463;-82
2021/06/27 08:52:28;;;;;;;8.93;5.07;;;25.20;67.40;;;;;;4919816;29;20048;-81
2021/06/27 08:54:55;;;;;;;9.57;5.25;;;25.30;67.20;;;;;;4905901;29;20114;-81
2021/06/27 08:57:22;;;;;;;10.38;5.35;;;25.30;66.70;;;;;;4913056;29;20043;-82
2021/06/27 08:59:48;;;;;;;8.63;4.82;;;25.30;66.70;;;;;;4899202;29;20036;-82
2021/06/27 09:02:15;;;;;;;9.23;4.88;;;25.40;66.90;;;;;;4916315;29;20020;-82
2021/06/27 09:04:43;;;;;;;9.73;4.85;;;25.50;67.10;;;;;;4916549;29;20024;-82
2021/06/27 09:07:30;;;;;;;9.57;4.68;;;25.60;67.00;;;;;;4899370;29;20040;-82
2021/06/27 09:10:17;;;;;;;8.40;4.20;;;25.60;66.60;;;;;;4928614;29;20043;-82
2021/06/27 09:12:54;;;;;;;15.23;11.55;;;25.70;66.70;;;;;;4918056;29;20035;-82
2021/06/27 09:15:50;;;;;;;8.43;5.07;;;25.70;66.60;;;;;;4934896;29;20560;-82
2021/06/27 09:18:16;;;;;;;9.13;4.50;;;25.90;67.20;;;;;;4919256;29;20024;-82
2021/06/27 09:20:45;;;;;;;8.25;4.40;;;26.20;67.20;;;;;;4903351;29;20024;-82
2021/06/27 09:23:14;;;;;;;7.38;3.92;;;26.30;66.80;;;;;;4917978;29;20493;-82
2021/06/27 09:25:43;;;;;;;8.13;4.30;;;26.50;67.00;;;;;;4910104;29;20540;-82
2021/06/27 09:28:13;;;;;;;7.78;3.90;;;26.70;67.10;;;;;;4902434;29;20024;-82
2021/06/27 09:30:43;;;;;;;8.25;4.10;;;26.90;67.00;;;;;;4899361;29;20043;-82
2021/06/27 09:33:12;;;;;;;7.00;3.70;;;27.10;66.70;;;;;;4919395;29;20461;-82
2021/06/27 09:35:46;;;;;;;6.35;3.35;;;27.30;66.30;;;;;;4919207;29;20063;-82
2021/06/27 09:38:44;;;;;;;6.60;3.35;;;27.30;65.60;;;;;;4916017;29;20070;-82
2021/06/27 09:41:30;;;;;;;7.18;3.80;;;27.40;65.60;;;;;;4919175;29;20376;-82
2021/06/27 09:43:58;;;;;;;7.07;3.50;;;27.50;65.70;;;;;;4916692;29;20028;-83
2021/06/27 09:46:44;;;;;;;8.77;4.20;;;27.60;65.10;;;;;;4919220;29;20024;-82
2021/06/27 09:49:16;;;;;;;7.28;3.85;;;27.60;64.80;;;;;;4918929;29;20477;-82
2021/06/27 09:51:54;;;;;;;7.32;3.70;;;27.80;64.70;;;;;;4924672;29;20119;-83
2021/06/27 09:54:24;;;;;;;6.85;3.50;;;27.90;64.20;;;;;;4916561;29;20043;-82
2021/06/27 09:56:51;;;;;;;8.25;3.80;;;28.00;63.50;;;;;;4917727;29;20476;-83
2021/06/27 09:59:31;;;;;;;8.07;3.72;;;28.10;63.10;;;;;;4917935;29;20563;-82
2021/06/27 10:01:58;;;;;;;7.40;3.38;;;28.20;62.90;;;;;;4917940;29;20024;-83
2021/06/27 10:04:33;;;;;;;6.25;3.00;;;28.40;63.60;;;;;;4919728;29;20536;-83
2021/06/27 10:07:03;;;;;;;7.40;3.33;;;28.70;63.60;;;;;;4914814;29;20492;-83
2021/06/27 10:09:31;;;;;;;5.65;2.80;;;28.90;63.10;;;;;;4918091;29;20035;-83
2021/06/27 10:12:07;;;;;;;5.90;3.17;;;29.00;62.90;;;;;;4918677;29;20055;-83
2021/06/27 10:14:50;;;;;;;5.35;2.78;;;29.20;63.30;;;;;;4918076;29;20012;-84
2021/06/27 10:17:18;;;;;;;5.57;2.90;;;29.50;62.70;;;;;;4918145;29;20358;-84
2021/06/27 10:19:47;;;;;;;5.05;2.90;;;29.80;62.80;;;;;;4917028;29;20493;-84
2021/06/27 10:22:14;;;;;;;5.72;2.97;;;30.10;63.00;;;;;;4918211;29;20024;-82
2021/06/27 10:24:42;;;;;;;6.68;2.80;;;30.20;61.90;;;;;;4917113;29;20029;-87
2021/06/27 10:27:09;;;;;;;5.90;3.00;;;30.20;61.10;;;;;;4901090;29;20323;-83
2021/06/27 10:29:44;;;;;;;7.10;3.80;;;30.20;61.10;;;;;;4918356;29;20089;-84
2021/06/27 10:32:11;;;;;;;7.25;3.38;;;30.40;61.70;;;;;;4916172;29;20044;-84
2021/06/27 10:34:38;;;;;;;6.25;3.20;;;30.50;60.80;;;;;;4917948;29;20036;-84
2021/06/27 10:37:09;;;;;;;5.18;3.03;;;30.50;59.80;;;;;;4901134;29;20028;-85
2021/06/27 10:39:36;;;;;;;5.05;2.80;;;30.50;59.40;;;;;;4917993;29;20027;-83
2021/06/27 10:42:06;;;;;;;5.80;2.90;;;30.50;59.50;;;;;;4905174;29;20469;-83
2021/06/27 10:44:39;;;;;;;7.22;2.92;;;30.70;59.20;;;;;;4918040;29;20040;-83
2021/06/27 10:47:28;;;;;;;4.45;2.45;;;30.70;58.10;;;;;;4917385;29;20028;-83
2021/06/27 10:49:55;;;;;;;5.80;2.70;;;30.70;58.20;;;;;;4917282;29;20469;-83
2021/06/27 10:52:23;;;;;;;5.05;2.60;;;30.80;58.40;;;;;;4917727;29;20104;-83
2021/06/27 10:55:19;;;;;;;5.13;2.60;;;30.90;58.50;;;;;;4915287;29;20056;-83
2021/06/27 10:57:52;;;;;;;8.35;5.03;;;31.00;58.50;;;;;;4916259;29;20024;-83
2021/06/27 11:00:19;;;;;;;8.38;3.35;;;31.20;58.60;;;;;;4916261;29;20504;-83
2021/06/27 11:02:45;;;;;;;5.32;2.40;;;31.50;58.50;;;;;;4913282;29;20441;-83
2021/06/27 11:05:28;;;;;;;4.88;2.47;;;31.60;58.20;;;;;;4935040;29;20400;-83
2021/06/27 11:07:59;;;;;;;4.28;2.33;;;31.90;58.40;;;;;;4917414;29;20495;-84
2021/06/27 11:10:25;;;;;;;4.70;2.40;;;32.10;58.00;;;;;;4917944;29;20496;-86
2021/06/27 11:13:05;;;;;;;4.50;2.80;;;32.20;57.70;;;;;;4935409;29;20023;-86
2021/06/27 11:15:37;;;;;;;7.20;2.65;;;32.50;57.70;;;;;;4918082;29;20016;-87
2021/06/27 11:18:09;;;;;;;5.75;2.50;;;32.80;57.70;;;;;;4917242;29;20053;-87
2021/06/27 11:20:55;;;;;;;4.93;2.42;;;33.10;57.90;;;;;;4904002;29;20480;-87
2021/06/27 11:24:02;;;;;;;5.47;2.50;;;33.50;58.40;;;;;;4916884;29;20490;-86
2021/06/27 11:26:47;;;;;;;5.40;2.88;;;33.70;58.10;;;;;;4902122;29;20036;-86
2021/06/27 11:29:26;;;;;;;5.38;2.75;;;34.70;61.00;;;;;;4925335;29;20484;-87
2021/06/27 11:31:58;;;;;;;6.10;2.60;;;35.90;62.30;;;;;;4923099;29;20089;-88
2021/06/27 11:34:28;;;;;;;5.85;2.47;;;37.10;61.90;;;;;;4904098;29;20110;-85
2021/06/27 11:36:56;;;;;;;4.75;2.40;;;37.90;58.30;;;;;;4919416;29;20519;-84
2021/06/27 11:39:50;;;;;;;4.28;2.40;;;37.50;52.80;;;;;;4916645;29;20028;-86
2021/06/27 11:42:28;;;;;;;4.38;2.20;;;37.10;56.00;;;;;;4916671;29;20024;-87
2021/06/27 11:45:07;;;;;;;3.72;2.28;;;38.20;57.10;;;;;;4916825;29;20540;-87
2021/06/27 11:47:35;;;;;;;3.10;2.20;;;39.10;55.20;;;;;;4916387;29;20481;-87
2021/06/27 11:50:19;;;;;;;5.20;2.20;;;39.90;55.30;;;;;;4899646;29;20063;-85
2021/06/27 11:52:50;;;;;;;3.22;2.10;;;40.70;55.30;;;;;;4916941;29;20686;-85
2021/06/27 11:55:17;;;;;;;2.67;2.20;;;41.20;53.90;;;;;;4917236;29;20378;-84
2021/06/27 11:57:43;;;;;;;2.33;1.90;;;41.70;52.30;;;;;;4917835;29;20024;-84
2021/06/27 12:00:13;;;;;;;2.22;1.90;;;41.90;52.20;;;;;;4889795;29;20052;-84
2021/06/27 12:02:40;;;;;;;2.53;1.80;;;42.20;51.40;;;;;;4915813;29;20103;-85
2021/06/27 12:05:14;;;;;;;2.30;1.80;;;42.60;51.70;;;;;;4902879;29;20489;-85
2021/06/27 12:07:43;;;;;;;3.05;1.95;;;43.20;51.60;;;;;;4916246;29;20020;-85
2021/06/27 12:10:16;;;;;;;2.38;2.00;;;43.70;50.40;;;;;;4918403;29;20604;-85
2021/06/27 12:12:57;;;;;;;3.38;1.90;;;44.40;51.20;;;;;;4916556;29;20520;-83
2021/06/27 12:15:26;;;;;;;2.10;1.90;;;45.20;50.60;;;;;;4917038;29;20485;-83
2021/06/27 12:18:04;;;;;;;3.25;2.20;;;45.30;49.20;;;;;;4909555;29;20020;-84
2021/06/27 12:20:35;;;;;;;2.65;2.10;;;45.90;50.10;;;;;;4923192;29;20492;-84
2021/06/27 12:23:07;;;;;;;2.17;1.95;;;46.60;50.50;;;;;;4940220;29;20396;-84
2021/06/27 12:25:40;;;;;;;2.95;2.10;;;47.10;50.10;;;;;;4924191;29;20031;-85
2021/06/27 12:28:19;;;;;;;2.30;2.00;;;47.90;50.00;;;;;;4925381;29;20497;-85
2021/06/27 12:30:57;;;;;;;2.33;2.10;;;48.50;48.70;;;;;;4921283;29;20044;-86
2021/06/27 12:33:30;;;;;;;2.35;1.98;;;48.50;46.20;;;;;;4921570;29;20438;-86
2021/06/27 12:36:06;;;;;;;3.17;2.00;;;47.60;40.50;;;;;;4925069;29;20491;-86
2021/06/27 12:38:34;;;;;;;3.30;2.10;;;45.70;39.60;;;;;;4923357;29;20032;-85
2021/06/27 12:41:04;;;;;;;2.30;2.08;;;44.30;39.70;;;;;;4923870;29;20024;-85
2021/06/27 12:43:43;;;;;;;2.20;2.00;;;44.20;40.90;;;;;;4924049;29;20540;-85